sensor_id;sensor_type;location;lat;lon;timestamp;P1;durP1;ratioP1;P2;durP2;ratioP2
11328;SDS011;5719;42.714;23.732;2023-11-21T00:00:33;17.58;;;7.00;;
11328;SDS011;5719;42.714;23.732;2023-11-21T00:03:00;16.83;;;7.07;;
11328;SDS011;5719;42.714;23.732;2023-11-21T00:05:29;17.63;;;7.15;;
11328;SDS011;5719;42.714;23.732;2023-11-21T00:07:57;19.42;;;6.80;;
11328;SDS011;5719;42.714;23.732;2023-11-21T00:10:24;11.57;;;5.97;;
11328;SDS011;5719;42.714;23.732;2023-11-21T00:12:51;15.38;;;6.68;;
11328;SDS011;5719;42.714;23.732;2023-11-21T00:15:20;16.80;;;7.20;;
11328;SDS011;5719;42.714;23.732;2023-11-21T00:17:46;11.15;;;6.40;;
11328;SDS011;5719;42.714;23.732;2023-11-21T00:20:13;11.77;;;6.20;;
11328;SDS011;5719;42.714;23.732;2023-11-21T00:22:40;13.77;;;7.88;;
11328;SDS011;5719;42.714;23.732;2023-11-21T00:25:09;15.57;;;7.03;;
11328;SDS011;5719;42.714;23.732;2023-11-21T00:27:36;13.80;;;6.97;;
11328;SDS011;5719;42.714;23.732;2023-11-21T00:30:03;13.20;;;6.57;;
11328;SDS011;5719;42.714;23.732;2023-11-21T00:32:31;11.73;;;6.70;;
11328;SDS011;5719;42.714;23.732;2023-11-21T00:34:59;13.32;;;6.20;;
11328;SDS011;5719;42.714;23.732;2023-11-21T00:37:25;11.10;;;6.22;;
11328;SDS011;5719;42.714;23.732;2023-11-21T00:39:52;13.82;;;6.38;;
11328;SDS011;5719;42.714;23.732;2023-11-21T00:42:20;14.15;;;6.07;;
11328;SDS011;5719;42.714;23.732;2023-11-21T00:44:47;11.57;;;5.90;;
11328;SDS011;5719;42.714;23.732;2023-11-21T00:47:14;13.23;;;5.60;;
11328;SDS011;5719;42.714;23.732;2023-11-21T00:49:41;9.52;;;5.75;;
11328;SDS011;5719;42.714;23.732;2023-11-21T00:52:08;9.10;;;6.13;;
11328;SDS011;5719;42.714;23.732;2023-11-21T00:54:35;9.23;;;5.68;;
11328;SDS011;5719;42.714;23.732;2023-11-21T00:57:02;9.13;;;5.53;;
11328;SDS011;5719;42.714;23.732;2023-11-21T00:59:30;11.23;;;5.68;;
11328;SDS011;5719;42.714;23.732;2023-11-21T01:01:57;12.30;;;5.93;;
11328;SDS011;5719;42.714;23.732;2023-11-21T01:04:25;12.48;;;5.15;;
11328;SDS011;5719;42.714;23.732;2023-11-21T01:06:52;11.23;;;5.90;;
11328;SDS011;5719;42.714;23.732;2023-11-21T01:09:19;9.25;;;5.20;;
11328;SDS011;5719;42.714;23.732;2023-11-21T01:11:45;7.25;;;4.75;;
11328;SDS011;5719;42.714;23.732;2023-11-21T01:14:12;11.27;;;4.88;;
11328;SDS011;5719;42.714;23.732;2023-11-21T01:16:41;7.85;;;5.10;;
11328;SDS011;5719;42.714;23.732;2023-11-21T01:19:08;9.98;;;5.28;;
11328;SDS011;5719;42.714;23.732;2023-11-21T01:21:35;10.35;;;5.43;;
11328;SDS011;5719;42.714;23.732;2023-11-21T01:24:02;9.32;;;6.03;;
11328;SDS011;5719;42.714;23.732;2023-11-21T01:26:32;11.93;;;5.57;;
11328;SDS011;5719;42.714;23.732;2023-11-21T01:28:59;10.25;;;5.15;;
11328;SDS011;5719;42.714;23.732;2023-11-21T01:31:26;12.18;;;5.70;;
11328;SDS011;5719;42.714;23.732;2023-11-21T01:33:56;7.38;;;5.07;;
11328;SDS011;5719;42.714;23.732;2023-11-21T01:36:29;9.00;;;5.43;;
11328;SDS011;5719;42.714;23.732;2023-11-21T01:38:57;8.02;;;4.97;;
11328;SDS011;5719;42.714;23.732;2023-11-21T01:41:24;10.75;;;5.55;;
11328;SDS011;5719;42.714;23.732;2023-11-21T01:43:52;10.38;;;4.75;;
11328;SDS011;5719;42.714;23.732;2023-11-21T01:46:19;6.57;;;4.40;;
11328;SDS011;5719;42.714;23.732;2023-11-21T01:48:46;11.70;;;6.15;;
11328;SDS011;5719;42.714;23.732;2023-11-21T01:51:14;10.68;;;5.85;;
11328;SDS011;5719;42.714;23.732;2023-11-21T01:53:41;9.82;;;5.40;;
11328;SDS011;5719;42.714;23.732;2023-11-21T01:56:09;8.93;;;5.30;;
11328;SDS011;5719;42.714;23.732;2023-11-21T01:58:36;10.13;;;5.82;;
11328;SDS011;5719;42.714;23.732;2023-11-21T02:01:03;7.30;;;4.82;;
11328;SDS011;5719;42.714;23.732;2023-11-21T02:03:30;8.55;;;5.47;;
11328;SDS011;5719;42.714;23.732;2023-11-21T02:05:57;10.45;;;5.20;;
11328;SDS011;5719;42.714;23.732;2023-11-21T02:08:25;9.50;;;4.82;;
11328;SDS011;5719;42.714;23.732;2023-11-21T02:10:53;7.78;;;4.82;;
11328;SDS011;5719;42.714;23.732;2023-11-21T02:13:20;7.57;;;4.72;;
11328;SDS011;5719;42.714;23.732;2023-11-21T02:15:46;8.35;;;4.47;;
11328;SDS011;5719;42.714;23.732;2023-11-21T02:18:15;9.93;;;4.93;;
11328;SDS011;5719;42.714;23.732;2023-11-21T02:20:43;9.10;;;5.25;;
11328;SDS011;5719;42.714;23.732;2023-11-21T02:23:11;12.10;;;4.45;;
11328;SDS011;5719;42.714;23.732;2023-11-21T02:25:38;16.50;;;5.13;;
11328;SDS011;5719;42.714;23.732;2023-11-21T02:28:05;10.20;;;5.57;;
11328;SDS011;5719;42.714;23.732;2023-11-21T02:30:32;9.40;;;5.13;;
11328;SDS011;5719;42.714;23.732;2023-11-21T02:32:59;13.35;;;6.40;;
11328;SDS011;5719;42.714;23.732;2023-11-21T02:35:26;9.27;;;5.38;;
11328;SDS011;5719;42.714;23.732;2023-11-21T02:37:53;10.30;;;5.35;;
11328;SDS011;5719;42.714;23.732;2023-11-21T02:40:21;10.77;;;5.32;;
11328;SDS011;5719;42.714;23.732;2023-11-21T02:42:50;11.75;;;6.18;;
11328;SDS011;5719;42.714;23.732;2023-11-21T02:45:17;12.00;;;5.93;;
11328;SDS011;5719;42.714;23.732;2023-11-21T02:47:46;16.13;;;6.78;;
11328;SDS011;5719;42.714;23.732;2023-11-21T02:50:14;16.65;;;7.15;;
11328;SDS011;5719;42.714;23.732;2023-11-21T02:52:41;18.05;;;8.25;;
11328;SDS011;5719;42.714;23.732;2023-11-21T02:55:08;12.20;;;7.25;;
11328;SDS011;5719;42.714;23.732;2023-11-21T02:57:36;14.23;;;6.30;;
11328;SDS011;5719;42.714;23.732;2023-11-21T03:00:03;17.88;;;7.60;;
11328;SDS011;5719;42.714;23.732;2023-11-21T03:02:32;17.52;;;7.47;;
11328;SDS011;5719;42.714;23.732;2023-11-21T03:05:01;15.23;;;7.50;;
11328;SDS011;5719;42.714;23.732;2023-11-21T03:07:30;12.98;;;6.63;;
11328;SDS011;5719;42.714;23.732;2023-11-21T03:09:57;10.10;;;5.65;;
11328;SDS011;5719;42.714;23.732;2023-11-21T03:12:23;15.20;;;6.38;;
11328;SDS011;5719;42.714;23.732;2023-11-21T03:14:52;14.48;;;6.88;;
11328;SDS011;5719;42.714;23.732;2023-11-21T03:17:19;11.10;;;5.88;;
11328;SDS011;5719;42.714;23.732;2023-11-21T03:19:47;14.80;;;5.82;;
11328;SDS011;5719;42.714;23.732;2023-11-21T03:22:14;12.52;;;6.28;;
11328;SDS011;5719;42.714;23.732;2023-11-21T03:24:41;9.02;;;5.45;;
11328;SDS011;5719;42.714;23.732;2023-11-21T03:27:08;11.40;;;5.72;;
11328;SDS011;5719;42.714;23.732;2023-11-21T03:29:34;10.70;;;5.35;;
11328;SDS011;5719;42.714;23.732;2023-11-21T03:32:03;15.48;;;5.53;;
11328;SDS011;5719;42.714;23.732;2023-11-21T03:34:30;12.25;;;6.03;;
11328;SDS011;5719;42.714;23.732;2023-11-21T03:36:57;10.32;;;5.13;;
11328;SDS011;5719;42.714;23.732;2023-11-21T03:39:24;9.85;;;4.47;;
11328;SDS011;5719;42.714;23.732;2023-11-21T03:41:51;10.30;;;5.03;;
11328;SDS011;5719;42.714;23.732;2023-11-21T03:44:18;9.15;;;5.05;;
11328;SDS011;5719;42.714;23.732;2023-11-21T03:46:45;11.60;;;4.45;;
11328;SDS011;5719;42.714;23.732;2023-11-21T03:49:13;13.68;;;5.80;;
11328;SDS011;5719;42.714;23.732;2023-11-21T03:51:39;13.48;;;5.75;;
11328;SDS011;5719;42.714;23.732;2023-11-21T03:54:06;20.88;;;5.72;;
11328;SDS011;5719;42.714;23.732;2023-11-21T03:56:33;11.07;;;5.57;;
11328;SDS011;5719;42.714;23.732;2023-11-21T03:59:00;12.23;;;5.80;;
11328;SDS011;5719;42.714;23.732;2023-11-21T04:01:27;13.25;;;5.10;;
11328;SDS011;5719;42.714;23.732;2023-11-21T04:03:53;13.65;;;6.00;;
11328;SDS011;5719;42.714;23.732;2023-11-21T04:06:22;12.95;;;6.03;;
11328;SDS011;5719;42.714;23.732;2023-11-21T04:08:49;12.63;;;5.45;;
11328;SDS011;5719;42.714;23.732;2023-11-21T04:11:15;15.50;;;6.45;;
11328;SDS011;5719;42.714;23.732;2023-11-21T04:13:42;11.93;;;5.35;;
11328;SDS011;5719;42.714;23.732;2023-11-21T04:16:09;14.57;;;6.40;;
11328;SDS011;5719;42.714;23.732;2023-11-21T04:18:36;15.25;;;6.32;;
11328;SDS011;5719;42.714;23.732;2023-11-21T04:21:03;12.13;;;5.70;;
11328;SDS011;5719;42.714;23.732;2023-11-21T04:23:32;12.73;;;5.65;;
11328;SDS011;5719;42.714;23.732;2023-11-21T04:25:59;11.77;;;6.10;;
11328;SDS011;5719;42.714;23.732;2023-11-21T04:28:28;12.70;;;5.72;;
11328;SDS011;5719;42.714;23.732;2023-11-21T04:30:55;12.73;;;6.07;;
11328;SDS011;5719;42.714;23.732;2023-11-21T04:33:22;18.13;;;6.82;;
11328;SDS011;5719;42.714;23.732;2023-11-21T04:35:50;24.90;;;8.63;;
11328;SDS011;5719;42.714;23.732;2023-11-21T04:38:17;22.58;;;7.45;;
11328;SDS011;5719;42.714;23.732;2023-11-21T04:40:45;15.57;;;6.82;;
11328;SDS011;5719;42.714;23.732;2023-11-21T04:43:12;14.38;;;6.53;;
11328;SDS011;5719;42.714;23.732;2023-11-21T04:45:39;14.68;;;6.13;;
11328;SDS011;5719;42.714;23.732;2023-11-21T04:48:06;18.08;;;5.95;;
11328;SDS011;5719;42.714;23.732;2023-11-21T04:50:33;10.75;;;5.65;;
11328;SDS011;5719;42.714;23.732;2023-11-21T04:53:00;14.80;;;6.80;;
11328;SDS011;5719;42.714;23.732;2023-11-21T04:55:27;11.40;;;5.82;;
11328;SDS011;5719;42.714;23.732;2023-11-21T04:57:55;14.25;;;6.63;;
11328;SDS011;5719;42.714;23.732;2023-11-21T05:00:22;14.85;;;6.47;;
11328;SDS011;5719;42.714;23.732;2023-11-21T05:02:49;13.55;;;5.60;;
11328;SDS011;5719;42.714;23.732;2023-11-21T05:05:17;10.25;;;5.63;;
11328;SDS011;5719;42.714;23.732;2023-11-21T05:07:44;13.52;;;6.40;;
11328;SDS011;5719;42.714;23.732;2023-11-21T05:10:11;16.67;;;6.30;;
11328;SDS011;5719;42.714;23.732;2023-11-21T05:12:39;13.80;;;7.22;;
11328;SDS011;5719;42.714;23.732;2023-11-21T05:15:09;16.27;;;7.85;;
11328;SDS011;5719;42.714;23.732;2023-11-21T05:17:40;16.00;;;7.25;;
11328;SDS011;5719;42.714;23.732;2023-11-21T05:20:08;10.10;;;6.35;;
11328;SDS011;5719;42.714;23.732;2023-11-21T05:22:36;14.77;;;6.90;;
11328;SDS011;5719;42.714;23.732;2023-11-21T05:25:03;13.80;;;7.35;;
11328;SDS011;5719;42.714;23.732;2023-11-21T05:27:32;11.93;;;6.63;;
11328;SDS011;5719;42.714;23.732;2023-11-21T05:30:00;16.45;;;7.07;;
11328;SDS011;5719;42.714;23.732;2023-11-21T05:32:29;11.90;;;6.75;;
11328;SDS011;5719;42.714;23.732;2023-11-21T05:34:56;9.40;;;6.20;;
11328;SDS011;5719;42.714;23.732;2023-11-21T05:37:22;10.57;;;6.38;;
11328;SDS011;5719;42.714;23.732;2023-11-21T05:39:51;12.88;;;7.05;;
11328;SDS011;5719;42.714;23.732;2023-11-21T05:42:17;9.38;;;6.40;;
11328;SDS011;5719;42.714;23.732;2023-11-21T05:44:46;10.73;;;6.47;;
11328;SDS011;5719;42.714;23.732;2023-11-21T05:47:12;11.27;;;6.32;;
11328;SDS011;5719;42.714;23.732;2023-11-21T05:49:41;11.13;;;6.28;;
11328;SDS011;5719;42.714;23.732;2023-11-21T05:52:08;11.32;;;5.97;;
11328;SDS011;5719;42.714;23.732;2023-11-21T05:54:35;17.73;;;7.05;;
11328;SDS011;5719;42.714;23.732;2023-11-21T05:57:02;13.05;;;6.03;;
11328;SDS011;5719;42.714;23.732;2023-11-21T05:59:29;12.60;;;6.18;;
11328;SDS011;5719;42.714;23.732;2023-11-21T06:01:56;15.50;;;6.55;;
11328;SDS011;5719;42.714;23.732;2023-11-21T06:04:24;17.45;;;6.07;;
11328;SDS011;5719;42.714;23.732;2023-11-21T06:06:52;11.20;;;5.57;;
11328;SDS011;5719;42.714;23.732;2023-11-21T06:09:19;13.55;;;7.03;;
11328;SDS011;5719;42.714;23.732;2023-11-21T06:11:47;20.42;;;9.23;;
11328;SDS011;5719;42.714;23.732;2023-11-21T06:14:14;26.70;;;11.70;;
11328;SDS011;5719;42.714;23.732;2023-11-21T06:16:43;25.17;;;10.90;;
11328;SDS011;5719;42.714;23.732;2023-11-21T06:19:10;30.73;;;12.25;;
11328;SDS011;5719;42.714;23.732;2023-11-21T06:21:37;35.83;;;14.38;;
11328;SDS011;5719;42.714;23.732;2023-11-21T06:24:05;45.10;;;20.70;;
11328;SDS011;5719;42.714;23.732;2023-11-21T06:26:33;45.30;;;20.23;;
11328;SDS011;5719;42.714;23.732;2023-11-21T06:28:59;48.28;;;20.20;;
11328;SDS011;5719;42.714;23.732;2023-11-21T06:31:29;42.50;;;19.08;;
11328;SDS011;5719;42.714;23.732;2023-11-21T06:33:58;32.95;;;16.13;;
11328;SDS011;5719;42.714;23.732;2023-11-21T06:36:25;33.25;;;14.35;;
11328;SDS011;5719;42.714;23.732;2023-11-21T06:38:52;19.42;;;9.55;;
11328;SDS011;5719;42.714;23.732;2023-11-21T06:41:21;18.45;;;9.95;;
11328;SDS011;5719;42.714;23.732;2023-11-21T06:43:48;20.35;;;9.25;;
11328;SDS011;5719;42.714;23.732;2023-11-21T06:46:15;20.05;;;9.52;;
11328;SDS011;5719;42.714;23.732;2023-11-21T06:48:42;16.33;;;7.70;;
11328;SDS011;5719;42.714;23.732;2023-11-21T06:51:09;17.27;;;8.38;;
11328;SDS011;5719;42.714;23.732;2023-11-21T06:53:36;12.98;;;7.60;;
11328;SDS011;5719;42.714;23.732;2023-11-21T06:56:04;11.60;;;6.03;;
11328;SDS011;5719;42.714;23.732;2023-11-21T06:58:33;20.70;;;8.07;;
11328;SDS011;5719;42.714;23.732;2023-11-21T07:01:00;25.83;;;12.10;;
11328;SDS011;5719;42.714;23.732;2023-11-21T07:03:27;23.50;;;12.07;;
11328;SDS011;5719;42.714;23.732;2023-11-21T07:05:54;21.80;;;10.13;;
11328;SDS011;5719;42.714;23.732;2023-11-21T07:08:21;22.60;;;11.18;;
11328;SDS011;5719;42.714;23.732;2023-11-21T07:10:47;28.65;;;13.20;;
11328;SDS011;5719;42.714;23.732;2023-11-21T07:13:14;24.35;;;9.27;;
11328;SDS011;5719;42.714;23.732;2023-11-21T07:15:42;14.73;;;8.90;;
11328;SDS011;5719;42.714;23.732;2023-11-21T07:18:09;15.07;;;7.78;;
11328;SDS011;5719;42.714;23.732;2023-11-21T07:20:36;25.67;;;13.32;;
11328;SDS011;5719;42.714;23.732;2023-11-21T07:23:03;16.17;;;8.95;;
11328;SDS011;5719;42.714;23.732;2023-11-21T07:25:30;13.57;;;6.90;;
11328;SDS011;5719;42.714;23.732;2023-11-21T07:27:58;13.48;;;6.15;;
11328;SDS011;5719;42.714;23.732;2023-11-21T07:30:25;11.75;;;6.30;;
11328;SDS011;5719;42.714;23.732;2023-11-21T07:32:54;12.68;;;5.50;;
11328;SDS011;5719;42.714;23.732;2023-11-21T07:35:20;12.93;;;5.57;;
11328;SDS011;5719;42.714;23.732;2023-11-21T07:37:47;9.57;;;5.03;;
11328;SDS011;5719;42.714;23.732;2023-11-21T07:40:15;8.70;;;4.75;;
11328;SDS011;5719;42.714;23.732;2023-11-21T07:42:42;9.40;;;4.82;;
11328;SDS011;5719;42.714;23.732;2023-11-21T07:45:09;9.00;;;5.00;;
11328;SDS011;5719;42.714;23.732;2023-11-21T07:47:36;9.95;;;4.57;;
11328;SDS011;5719;42.714;23.732;2023-11-21T07:50:06;7.00;;;4.70;;
11328;SDS011;5719;42.714;23.732;2023-11-21T07:52:34;7.28;;;4.10;;
11328;SDS011;5719;42.714;23.732;2023-11-21T07:55:00;7.60;;;4.03;;
11328;SDS011;5719;42.714;23.732;2023-11-21T07:57:27;5.25;;;3.95;;
11328;SDS011;5719;42.714;23.732;2023-11-21T07:59:54;6.93;;;4.28;;
11328;SDS011;5719;42.714;23.732;2023-11-21T08:02:21;6.25;;;4.05;;
11328;SDS011;5719;42.714;23.732;2023-11-21T08:04:48;6.18;;;4.13;;
11328;SDS011;5719;42.714;23.732;2023-11-21T08:07:17;4.93;;;4.00;;
11328;SDS011;5719;42.714;23.732;2023-11-21T08:09:44;4.82;;;3.40;;
11328;SDS011;5719;42.714;23.732;2023-11-21T08:12:11;4.20;;;3.40;;
11328;SDS011;5719;42.714;23.732;2023-11-21T08:14:40;5.00;;;3.53;;
11328;SDS011;5719;42.714;23.732;2023-11-21T08:17:07;6.20;;;3.42;;
11328;SDS011;5719;42.714;23.732;2023-11-21T08:19:35;4.97;;;3.13;;
11328;SDS011;5719;42.714;23.732;2023-11-21T08:22:02;3.25;;;2.95;;
11328;SDS011;5719;42.714;23.732;2023-11-21T08:24:31;3.97;;;2.47;;
11328;SDS011;5719;42.714;23.732;2023-11-21T08:26:58;5.03;;;2.25;;
11328;SDS011;5719;42.714;23.732;2023-11-21T08:29:24;4.80;;;2.60;;
11328;SDS011;5719;42.714;23.732;2023-11-21T08:31:51;8.07;;;2.65;;
11328;SDS011;5719;42.714;23.732;2023-11-21T08:34:18;3.58;;;2.50;;
11328;SDS011;5719;42.714;23.732;2023-11-21T08:36:45;5.70;;;2.58;;
11328;SDS011;5719;42.714;23.732;2023-11-21T08:39:12;4.05;;;2.88;;
11328;SDS011;5719;42.714;23.732;2023-11-21T08:41:44;6.00;;;3.38;;
11328;SDS011;5719;42.714;23.732;2023-11-21T08:44:11;3.53;;;3.00;;
11328;SDS011;5719;42.714;23.732;2023-11-21T08:46:37;5.32;;;3.75;;
11328;SDS011;5719;42.714;23.732;2023-11-21T08:49:05;5.80;;;3.28;;
11328;SDS011;5719;42.714;23.732;2023-11-21T08:51:31;4.47;;;4.05;;
11328;SDS011;5719;42.714;23.732;2023-11-21T08:53:58;5.95;;;4.00;;
11328;SDS011;5719;42.714;23.732;2023-11-21T08:56:29;7.55;;;3.72;;
11328;SDS011;5719;42.714;23.732;2023-11-21T08:58:58;8.05;;;3.80;;
11328;SDS011;5719;42.714;23.732;2023-11-21T09:01:27;4.72;;;3.40;;
11328;SDS011;5719;42.714;23.732;2023-11-21T09:03:54;10.13;;;6.30;;
11328;SDS011;5719;42.714;23.732;2023-11-21T09:06:20;10.18;;;5.30;;
11328;SDS011;5719;42.714;23.732;2023-11-21T09:08:47;7.35;;;4.75;;
11328;SDS011;5719;42.714;23.732;2023-11-21T09:11:14;5.28;;;3.85;;
11328;SDS011;5719;42.714;23.732;2023-11-21T09:13:41;5.72;;;3.80;;
11328;SDS011;5719;42.714;23.732;2023-11-21T09:16:09;8.50;;;3.38;;
11328;SDS011;5719;42.714;23.732;2023-11-21T09:18:36;7.90;;;3.97;;
11328;SDS011;5719;42.714;23.732;2023-11-21T09:21:03;5.65;;;3.40;;
11328;SDS011;5719;42.714;23.732;2023-11-21T09:23:30;6.47;;;3.70;;
11328;SDS011;5719;42.714;23.732;2023-11-21T09:25:57;4.75;;;3.70;;
11328;SDS011;5719;42.714;23.732;2023-11-21T09:28:26;4.63;;;3.40;;
11328;SDS011;5719;42.714;23.732;2023-11-21T09:30:53;5.10;;;4.15;;
11328;SDS011;5719;42.714;23.732;2023-11-21T09:33:21;3.97;;;3.50;;
11328;SDS011;5719;42.714;23.732;2023-11-21T09:35:50;6.95;;;4.18;;
11328;SDS011;5719;42.714;23.732;2023-11-21T09:38:17;8.98;;;4.07;;
11328;SDS011;5719;42.714;23.732;2023-11-21T09:40:44;7.35;;;3.97;;
11328;SDS011;5719;42.714;23.732;2023-11-21T09:43:14;8.98;;;4.15;;
11328;SDS011;5719;42.714;23.732;2023-11-21T09:45:44;6.68;;;4.43;;
11328;SDS011;5719;42.714;23.732;2023-11-21T09:48:13;9.32;;;4.47;;
11328;SDS011;5719;42.714;23.732;2023-11-21T09:50:43;7.68;;;4.97;;
11328;SDS011;5719;42.714;23.732;2023-11-21T09:53:12;5.55;;;4.30;;
11328;SDS011;5719;42.714;23.732;2023-11-21T09:55:43;5.75;;;3.90;;
11328;SDS011;5719;42.714;23.732;2023-11-21T09:58:11;5.78;;;3.80;;
11328;SDS011;5719;42.714;23.732;2023-11-21T10:00:42;5.60;;;2.92;;
11328;SDS011;5719;42.714;23.732;2023-11-21T10:03:10;4.68;;;3.00;;
11328;SDS011;5719;42.714;23.732;2023-11-21T10:05:38;2.92;;;2.60;;
11328;SDS011;5719;42.714;23.732;2023-11-21T10:08:07;3.80;;;2.70;;
11328;SDS011;5719;42.714;23.732;2023-11-21T10:10:36;6.47;;;2.80;;
11328;SDS011;5719;42.714;23.732;2023-11-21T10:13:06;5.85;;;2.58;;
11328;SDS011;5719;42.714;23.732;2023-11-21T10:15:37;4.03;;;2.75;;
11328;SDS011;5719;42.714;23.732;2023-11-21T10:18:05;4.05;;;2.60;;
11328;SDS011;5719;42.714;23.732;2023-11-21T10:20:34;5.72;;;2.72;;
11328;SDS011;5719;42.714;23.732;2023-11-21T10:23:03;8.68;;;3.38;;
11328;SDS011;5719;42.714;23.732;2023-11-21T10:25:34;5.30;;;3.00;;
11328;SDS011;5719;42.714;23.732;2023-11-21T10:28:02;3.97;;;2.30;;
11328;SDS011;5719;42.714;23.732;2023-11-21T10:30:32;3.55;;;2.15;;
11328;SDS011;5719;42.714;23.732;2023-11-21T10:33:02;2.53;;;2.10;;
11328;SDS011;5719;42.714;23.732;2023-11-21T10:35:38;3.53;;;2.13;;
11328;SDS011;5719;42.714;23.732;2023-11-21T10:38:12;1.75;;;1.65;;
11328;SDS011;5719;42.714;23.732;2023-11-21T10:40:40;4.53;;;2.00;;
11328;SDS011;5719;42.714;23.732;2023-11-21T10:43:09;2.15;;;1.40;;
11328;SDS011;5719;42.714;23.732;2023-11-21T10:45:38;2.85;;;1.45;;
11328;SDS011;5719;42.714;23.732;2023-11-21T10:48:05;2.03;;;1.70;;
11328;SDS011;5719;42.714;23.732;2023-11-21T10:50:34;2.20;;;1.80;;
11328;SDS011;5719;42.714;23.732;2023-11-21T10:53:01;1.73;;;1.48;;
11328;SDS011;5719;42.714;23.732;2023-11-21T10:55:29;2.25;;;1.38;;
11328;SDS011;5719;42.714;23.732;2023-11-21T10:57:59;2.55;;;1.60;;
11328;SDS011;5719;42.714;23.732;2023-11-21T11:00:28;2.15;;;1.55;;
11328;SDS011;5719;42.714;23.732;2023-11-21T11:02:56;2.38;;;1.60;;
11328;SDS011;5719;42.714;23.732;2023-11-21T11:05:24;1.48;;;1.30;;
11328;SDS011;5719;42.714;23.732;2023-11-21T11:07:56;2.63;;;1.50;;
11328;SDS011;5719;42.714;23.732;2023-11-21T11:10:26;2.80;;;1.70;;
11328;SDS011;5719;42.714;23.732;2023-11-21T11:12:54;2.58;;;1.40;;
11328;SDS011;5719;42.714;23.732;2023-11-21T11:15:24;1.40;;;1.30;;
11328;SDS011;5719;42.714;23.732;2023-11-21T11:17:52;4.10;;;1.40;;
11328;SDS011;5719;42.714;23.732;2023-11-21T11:20:22;3.00;;;1.33;;
11328;SDS011;5719;42.714;23.732;2023-11-21T11:22:51;3.72;;;1.50;;
11328;SDS011;5719;42.714;23.732;2023-11-21T11:25:35;1.60;;;1.20;;
11328;SDS011;5719;42.714;23.732;2023-11-21T11:28:14;2.03;;;1.30;;
11328;SDS011;5719;42.714;23.732;2023-11-21T11:30:50;1.85;;;1.40;;
11328;SDS011;5719;42.714;23.732;2023-11-21T11:33:30;2.28;;;1.25;;
11328;SDS011;5719;42.714;23.732;2023-11-21T11:36:05;1.15;;;0.88;;
11328;SDS011;5719;42.714;23.732;2023-11-21T11:38:34;0.50;;;0.50;;
11328;SDS011;5719;42.714;23.732;2023-11-21T11:41:02;1.30;;;0.60;;
11328;SDS011;5719;42.714;23.732;2023-11-21T11:43:30;0.47;;;0.47;;
11328;SDS011;5719;42.714;23.732;2023-11-21T11:46:06;0.55;;;0.50;;
11328;SDS011;5719;42.714;23.732;2023-11-21T11:48:34;0.50;;;0.50;;
11328;SDS011;5719;42.714;23.732;2023-11-21T11:51:04;2.60;;;0.60;;
11328;SDS011;5719;42.714;23.732;2023-11-21T11:53:37;3.83;;;0.60;;
11328;SDS011;5719;42.714;23.732;2023-11-21T11:58:53;0.68;;;0.68;;
11328;SDS011;5719;42.714;23.732;2023-11-21T12:01:23;0.90;;;0.40;;
11328;SDS011;5719;42.714;23.732;2023-11-21T12:07:00;0.32;;;0.32;;
11328;SDS011;5719;42.714;23.732;2023-11-21T12:09:29;0.60;;;0.60;;
11328;SDS011;5719;42.714;23.732;2023-11-21T12:11:58;3.15;;;0.60;;
11328;SDS011;5719;42.714;23.732;2023-11-21T12:14:25;0.60;;;0.60;;
11328;SDS011;5719;42.714;23.732;2023-11-21T12:16:54;0.52;;;0.52;;
11328;SDS011;5719;42.714;23.732;2023-11-21T12:19:20;1.17;;;0.43;;
11328;SDS011;5719;42.714;23.732;2023-11-21T12:21:48;1.15;;;0.50;;
11328;SDS011;5719;42.714;23.732;2023-11-21T12:24:16;11.38;;;0.73;;
11328;SDS011;5719;42.714;23.732;2023-11-21T12:26:43;14.52;;;1.25;;
11328;SDS011;5719;42.714;23.732;2023-11-21T12:29:10;1.15;;;0.70;;
11328;SDS011;5719;42.714;23.732;2023-11-21T12:31:37;3.22;;;0.60;;
11328;SDS011;5719;42.714;23.732;2023-11-21T12:34:06;1.65;;;0.70;;
11328;SDS011;5719;42.714;23.732;2023-11-21T12:36:36;2.47;;;1.50;;
11328;SDS011;5719;42.714;23.732;2023-11-21T12:39:03;6.07;;;2.80;;
11328;SDS011;5719;42.714;23.732;2023-11-21T12:41:31;5.78;;;2.70;;
11328;SDS011;5719;42.714;23.732;2023-11-21T12:43:57;4.47;;;2.97;;
11328;SDS011;5719;42.714;23.732;2023-11-21T12:46:24;8.73;;;3.88;;
11328;SDS011;5719;42.714;23.732;2023-11-21T12:48:54;11.75;;;5.00;;
11328;SDS011;5719;42.714;23.732;2023-11-21T12:51:23;7.50;;;4.63;;
11328;SDS011;5719;42.714;23.732;2023-11-21T12:53:50;10.55;;;5.18;;
11328;SDS011;5719;42.714;23.732;2023-11-21T12:56:17;9.30;;;5.50;;
11328;SDS011;5719;42.714;23.732;2023-11-21T12:58:57;9.35;;;5.93;;
11328;SDS011;5719;42.714;23.732;2023-11-21T13:01:27;10.15;;;6.05;;
11328;SDS011;5719;42.714;23.732;2023-11-21T13:03:55;12.73;;;6.85;;
11328;SDS011;5719;42.714;23.732;2023-11-21T13:06:25;10.23;;;6.63;;
11328;SDS011;5719;42.714;23.732;2023-11-21T13:08:52;10.63;;;6.80;;
11328;SDS011;5719;42.714;23.732;2023-11-21T13:11:22;11.38;;;7.03;;
11328;SDS011;5719;42.714;23.732;2023-11-21T13:13:51;14.70;;;8.05;;
11328;SDS011;5719;42.714;23.732;2023-11-21T13:16:19;17.23;;;10.10;;
11328;SDS011;5719;42.714;23.732;2023-11-21T13:18:48;27.65;;;13.30;;
11328;SDS011;5719;42.714;23.732;2023-11-21T13:21:15;27.92;;;13.73;;
11328;SDS011;5719;42.714;23.732;2023-11-21T13:23:44;23.45;;;12.05;;
11328;SDS011;5719;42.714;23.732;2023-11-21T13:26:13;16.73;;;10.45;;
11328;SDS011;5719;42.714;23.732;2023-11-21T13:28:41;20.02;;;11.32;;
11328;SDS011;5719;42.714;23.732;2023-11-21T13:31:11;24.73;;;12.88;;
11328;SDS011;5719;42.714;23.732;2023-11-21T13:33:46;16.50;;;10.27;;
11328;SDS011;5719;42.714;23.732;2023-11-21T13:36:19;21.08;;;10.98;;
11328;SDS011;5719;42.714;23.732;2023-11-21T13:38:49;23.40;;;11.23;;
11328;SDS011;5719;42.714;23.732;2023-11-21T13:41:17;18.50;;;10.23;;
11328;SDS011;5719;42.714;23.732;2023-11-21T13:43:44;17.83;;;9.43;;
11328;SDS011;5719;42.714;23.732;2023-11-21T13:46:17;17.73;;;10.60;;
11328;SDS011;5719;42.714;23.732;2023-11-21T13:48:47;21.58;;;10.30;;
11328;SDS011;5719;42.714;23.732;2023-11-21T13:51:16;17.17;;;10.02;;
11328;SDS011;5719;42.714;23.732;2023-11-21T13:53:43;17.27;;;10.20;;
11328;SDS011;5719;42.714;23.732;2023-11-21T13:56:14;13.90;;;9.95;;
11328;SDS011;5719;42.714;23.732;2023-11-21T13:58:48;19.45;;;10.45;;
11328;SDS011;5719;42.714;23.732;2023-11-21T14:01:16;18.48;;;10.32;;
11328;SDS011;5719;42.714;23.732;2023-11-21T14:04:03;16.60;;;10.52;;
11328;SDS011;5719;42.714;23.732;2023-11-21T14:06:44;17.98;;;10.65;;
11328;SDS011;5719;42.714;23.732;2023-11-21T14:09:13;17.33;;;10.20;;
11328;SDS011;5719;42.714;23.732;2023-11-21T14:11:49;21.80;;;11.38;;
11328;SDS011;5719;42.714;23.732;2023-11-21T14:14:17;25.20;;;11.23;;
11328;SDS011;5719;42.714;23.732;2023-11-21T14:16:44;21.10;;;10.45;;
11328;SDS011;5719;42.714;23.732;2023-11-21T14:19:11;20.13;;;10.82;;
11328;SDS011;5719;42.714;23.732;2023-11-21T14:21:42;21.20;;;11.20;;
11328;SDS011;5719;42.714;23.732;2023-11-21T14:24:09;23.25;;;12.75;;
11328;SDS011;5719;42.714;23.732;2023-11-21T14:26:38;27.10;;;14.30;;
11328;SDS011;5719;42.714;23.732;2023-11-21T14:29:07;30.17;;;15.90;;
11328;SDS011;5719;42.714;23.732;2023-11-21T14:31:39;33.25;;;16.23;;
11328;SDS011;5719;42.714;23.732;2023-11-21T14:34:06;27.38;;;14.88;;
11328;SDS011;5719;42.714;23.732;2023-11-21T14:36:33;26.95;;;13.85;;
11328;SDS011;5719;42.714;23.732;2023-11-21T14:39:01;25.98;;;13.25;;
11328;SDS011;5719;42.714;23.732;2023-11-21T14:41:32;26.52;;;14.57;;
11328;SDS011;5719;42.714;23.732;2023-11-21T14:44:00;28.88;;;14.85;;
11328;SDS011;5719;42.714;23.732;2023-11-21T14:46:30;26.75;;;14.55;;
11328;SDS011;5719;42.714;23.732;2023-11-21T14:48:57;27.08;;;14.05;;